sensor_id;sensor_type;location;lat;lon;timestamp;pressure;altitude;pressure_sealevel;temperature;humidity
46464;BME280;32161;48.148;-1.554;2023-04-01T00:00:14;100230.06;;;11.52;87.23
46464;BME280;32161;48.148;-1.554;2023-04-01T00:02:42;100224.34;;;11.31;88.08
46464;BME280;32161;48.148;-1.554;2023-04-01T00:05:11;100239.00;;;11.30;87.97
46464;BME280;32161;48.148;-1.554;2023-04-01T00:07:39;100235.63;;;11.23;87.76
46464;BME280;32161;48.148;-1.554;2023-04-01T00:10:10;100247.56;;;11.22;88.03
46464;BME280;32161;48.148;-1.554;2023-04-01T00:12:39;100250.06;;;11.23;88.24
46464;BME280;32161;48.148;-1.554;2023-04-01T00:15:09;100244.13;;;11.27;88.06
46464;BME280;32161;48.148;-1.554;2023-04-01T00:17:37;100246.75;;;11.21;88.78
46464;BME280;32161;48.148;-1.554;2023-04-01T00:20:07;100248.91;;;11.19;88.95
46464;BME280;32161;48.148;-1.554;2023-04-01T00:22:36;100245.09;;;11.04;89.72
46464;BME280;32161;48.148;-1.554;2023-04-01T00:25:05;100249.72;;;11.20;88.83
46464;BME280;32161;48.148;-1.554;2023-04-01T00:27:32;100253.44;;;11.31;87.81
46464;BME280;32161;48.148;-1.554;2023-04-01T00:30:00;100253.34;;;11.25;88.02
46464;BME280;32161;48.148;-1.554;2023-04-01T00:32:29;100250.72;;;11.47;87.19
46464;BME280;32161;48.148;-1.554;2023-04-01T00:34:57;100248.97;;;11.41;87.18
46464;BME280;32161;48.148;-1.554;2023-04-01T00:37:26;100244.47;;;11.30;87.80
46464;BME280;32161;48.148;-1.554;2023-04-01T00:39:55;100252.03;;;11.28;87.82
46464;BME280;32161;48.148;-1.554;2023-04-01T00:42:23;100259.28;;;11.22;88.10
46464;BME280;32161;48.148;-1.554;2023-04-01T00:44:54;100251.22;;;11.11;87.83
46464;BME280;32161;48.148;-1.554;2023-04-01T00:47:23;100247.25;;;11.35;86.79
46464;BME280;32161;48.148;-1.554;2023-04-01T00:49:53;100247.06;;;11.25;86.98
46464;BME280;32161;48.148;-1.554;2023-04-01T00:52:23;100248.22;;;11.12;87.28
46464;BME280;32161;48.148;-1.554;2023-04-01T00:54:57;100250.94;;;11.12;87.52
46464;BME280;32161;48.148;-1.554;2023-04-01T00:57:32;100247.53;;;10.88;88.70
46464;BME280;32161;48.148;-1.554;2023-04-01T01:00:06;100259.97;;;10.84;89.25
46464;BME280;32161;48.148;-1.554;2023-04-01T01:02:36;100255.63;;;11.00;88.92
46464;BME280;32161;48.148;-1.554;2023-04-01T01:05:04;100247.72;;;10.98;88.81
46464;BME280;32161;48.148;-1.554;2023-04-01T01:07:37;100244.31;;;10.91;89.53
46464;BME280;32161;48.148;-1.554;2023-04-01T01:10:11;100258.09;;;11.02;89.61
46464;BME280;32161;48.148;-1.554;2023-04-01T01:12:47;100254.56;;;11.01;89.75
46464;BME280;32161;48.148;-1.554;2023-04-01T01:15:24;100252.97;;;10.88;89.97
46464;BME280;32161;48.148;-1.554;2023-04-01T01:17:58;100258.69;;;11.04;90.07
46464;BME280;32161;48.148;-1.554;2023-04-01T01:24:13;100259.44;;;11.16;88.95
46464;BME280;32161;48.148;-1.554;2023-04-01T01:26:58;100264.63;;;11.00;88.71
46464;BME280;32161;48.148;-1.554;2023-04-01T01:35:31;100267.13;;;10.90;89.70
46464;BME280;32161;48.148;-1.554;2023-04-01T01:38:02;100270.47;;;10.92;90.35
46464;BME280;32161;48.148;-1.554;2023-04-01T01:40:32;100273.22;;;10.81;90.73
46464;BME280;32161;48.148;-1.554;2023-04-01T01:43:06;100262.88;;;10.94;89.51
46464;BME280;32161;48.148;-1.554;2023-04-01T01:45:40;100267.81;;;10.97;89.78
46464;BME280;32161;48.148;-1.554;2023-04-01T01:48:11;100267.00;;;11.14;88.69
46464;BME280;32161;48.148;-1.554;2023-04-01T01:50:41;100272.59;;;10.90;88.30
46464;BME280;32161;48.148;-1.554;2023-04-01T01:53:12;100276.66;;;10.76;89.66
46464;BME280;32161;48.148;-1.554;2023-04-01T01:55:43;100278.03;;;10.90;88.46
46464;BME280;32161;48.148;-1.554;2023-04-01T01:58:13;100274.41;;;11.02;87.77
46464;BME280;32161;48.148;-1.554;2023-04-01T02:00:46;100276.25;;;11.13;87.36
46464;BME280;32161;48.148;-1.554;2023-04-01T02:03:16;100272.97;;;11.11;87.60
46464;BME280;32161;48.148;-1.554;2023-04-01T02:05:47;100271.06;;;11.11;87.29
46464;BME280;32161;48.148;-1.554;2023-04-01T02:08:19;100272.72;;;11.29;86.61
46464;BME280;32161;48.148;-1.554;2023-04-01T02:10:59;100270.13;;;11.06;87.60
46464;BME280;32161;48.148;-1.554;2023-04-01T02:13:33;100274.19;;;11.03;87.43
46464;BME280;32161;48.148;-1.554;2023-04-01T02:16:06;100275.25;;;11.02;87.81
46464;BME280;32161;48.148;-1.554;2023-04-01T02:18:36;100277.13;;;11.02;87.98
46464;BME280;32161;48.148;-1.554;2023-04-01T02:21:08;100281.16;;;10.99;88.08
46464;BME280;32161;48.148;-1.554;2023-04-01T02:23:36;100284.88;;;10.93;87.93
46464;BME280;32161;48.148;-1.554;2023-04-01T02:26:06;100271.91;;;10.83;87.87
46464;BME280;32161;48.148;-1.554;2023-04-01T02:28:37;100271.47;;;11.03;87.26
46464;BME280;32161;48.148;-1.554;2023-04-01T02:31:07;100266.75;;;10.98;87.41
46464;BME280;32161;48.148;-1.554;2023-04-01T02:33:36;100274.50;;;11.07;86.99
46464;BME280;32161;48.148;-1.554;2023-04-01T02:36:10;100263.19;;;10.98;87.77
46464;BME280;32161;48.148;-1.554;2023-04-01T02:38:39;100271.56;;;10.80;88.56
46464;BME280;32161;48.148;-1.554;2023-04-01T02:41:07;100267.97;;;10.91;88.58
46464;BME280;32161;48.148;-1.554;2023-04-01T02:43:34;100269.09;;;10.78;89.05
46464;BME280;32161;48.148;-1.554;2023-04-01T02:46:02;100262.53;;;10.91;88.74
46464;BME280;32161;48.148;-1.554;2023-04-01T02:48:29;100270.78;;;10.96;88.07
46464;BME280;32161;48.148;-1.554;2023-04-01T02:50:57;100274.13;;;10.86;88.26
46464;BME280;32161;48.148;-1.554;2023-04-01T02:53:26;100267.97;;;10.91;87.77
46464;BME280;32161;48.148;-1.554;2023-04-01T02:55:53;100266.81;;;10.87;87.77
46464;BME280;32161;48.148;-1.554;2023-04-01T02:58:21;100271.13;;;10.71;88.75
46464;BME280;32161;48.148;-1.554;2023-04-01T03:00:49;100273.03;;;10.70;89.05
46464;BME280;32161;48.148;-1.554;2023-04-01T03:03:17;100271.69;;;10.85;88.53
46464;BME280;32161;48.148;-1.554;2023-04-01T03:05:44;100263.59;;;10.90;87.79
46464;BME280;32161;48.148;-1.554;2023-04-01T03:08:12;100271.75;;;10.90;88.23
46464;BME280;32161;48.148;-1.554;2023-04-01T03:10:41;100268.78;;;10.91;88.37
46464;BME280;32161;48.148;-1.554;2023-04-01T03:13:08;100269.31;;;10.88;88.73
46464;BME280;32161;48.148;-1.554;2023-04-01T03:15:37;100269.13;;;10.95;88.54
46464;BME280;32161;48.148;-1.554;2023-04-01T03:18:04;100274.22;;;10.91;88.75
46464;BME280;32161;48.148;-1.554;2023-04-01T03:20:32;100268.31;;;10.94;88.40
46464;BME280;32161;48.148;-1.554;2023-04-01T03:22:59;100274.41;;;11.02;88.38
46464;BME280;32161;48.148;-1.554;2023-04-01T03:25:27;100270.47;;;10.92;89.03
46464;BME280;32161;48.148;-1.554;2023-04-01T03:27:58;100258.09;;;10.85;88.88
46464;BME280;32161;48.148;-1.554;2023-04-01T03:30:26;100271.41;;;10.86;88.21
46464;BME280;32161;48.148;-1.554;2023-04-01T03:32:56;100273.91;;;10.88;88.24
46464;BME280;32161;48.148;-1.554;2023-04-01T03:35:23;100258.91;;;10.85;87.74
46464;BME280;32161;48.148;-1.554;2023-04-01T03:37:52;100273.22;;;10.81;87.78
46464;BME280;32161;48.148;-1.554;2023-04-01T03:40:20;100273.84;;;10.71;88.25
46464;BME280;32161;48.148;-1.554;2023-04-01T03:42:48;100282.69;;;10.78;88.08
46464;BME280;32161;48.148;-1.554;2023-04-01T03:45:18;100291.59;;;10.73;88.18
46464;BME280;32161;48.148;-1.554;2023-04-01T03:47:46;100296.75;;;10.75;88.88
46464;BME280;32161;48.148;-1.554;2023-04-01T03:50:14;100295.03;;;10.69;89.43
46464;BME280;32161;48.148;-1.554;2023-04-01T03:52:41;100288.19;;;10.66;90.02
46464;BME280;32161;48.148;-1.554;2023-04-01T03:55:09;100296.75;;;10.75;90.24
46464;BME280;32161;48.148;-1.554;2023-04-01T03:57:37;100295.69;;;10.76;90.08
46464;BME280;32161;48.148;-1.554;2023-04-01T04:00:06;100301.72;;;10.78;90.37
46464;BME280;32161;48.148;-1.554;2023-04-01T04:02:36;100310.47;;;10.80;90.21
46464;BME280;32161;48.148;-1.554;2023-04-01T04:05:05;100301.81;;;10.83;90.56
46464;BME280;32161;48.148;-1.554;2023-04-01T04:07:34;100297.75;;;10.69;90.66
46464;BME280;32161;48.148;-1.554;2023-04-01T04:10:02;100301.47;;;10.80;90.20
46464;BME280;32161;48.148;-1.554;2023-04-01T04:12:30;100306.81;;;10.74;90.22
46464;BME280;32161;48.148;-1.554;2023-04-01T04:14:58;100300.66;;;10.79;90.38
46464;BME280;32161;48.148;-1.554;2023-04-01T04:17:25;100305.78;;;10.64;90.77
46464;BME280;32161;48.148;-1.554;2023-04-01T04:19:54;100305.22;;;10.62;91.02
46464;BME280;32161;48.148;-1.554;2023-04-01T04:22:21;100300.00;;;10.60;91.39
46464;BME280;32161;48.148;-1.554;2023-04-01T04:24:49;100294.09;;;10.63;91.59
46464;BME280;32161;48.148;-1.554;2023-04-01T04:27:17;100295.03;;;10.69;91.19
46464;BME280;32161;48.148;-1.554;2023-04-01T04:29:45;100304.09;;;10.74;90.97
46464;BME280;32161;48.148;-1.554;2023-04-01T04:32:12;100301.00;;;10.83;91.01
46464;BME280;32161;48.148;-1.554;2023-04-01T04:34:40;100302.88;;;10.82;90.98
46464;BME280;32161;48.148;-1.554;2023-04-01T04:37:09;100303.72;;;10.83;90.64
46464;BME280;32161;48.148;-1.554;2023-04-01T04:39:36;100299.81;;;10.79;90.84
46464;BME280;32161;48.148;-1.554;2023-04-01T04:42:05;100290.41;;;10.69;90.84
46464;BME280;32161;48.148;-1.554;2023-04-01T04:44:32;100293.31;;;10.80;89.99
46464;BME280;32161;48.148;-1.554;2023-04-01T04:47:00;100296.25;;;10.61;90.04
46464;BME280;32161;48.148;-1.554;2023-04-01T04:49:28;100286.66;;;10.59;90.14
46464;BME280;32161;48.148;-1.554;2023-04-01T04:51:55;100289.84;;;10.56;90.58
46464;BME280;32161;48.148;-1.554;2023-04-01T04:54:24;100286.97;;;10.45;90.63
46464;BME280;32161;48.148;-1.554;2023-04-01T04:56:52;100298.88;;;10.44;90.44
46464;BME280;32161;48.148;-1.554;2023-04-01T04:59:19;100295.25;;;10.27;90.77
46464;BME280;32161;48.148;-1.554;2023-04-01T05:01:47;100296.16;;;10.44;90.52
46464;BME280;32161;48.148;-1.554;2023-04-01T05:04:15;100292.50;;;10.79;89.34
46464;BME280;32161;48.148;-1.554;2023-04-01T05:06:43;100298.09;;;10.72;88.37
46464;BME280;32161;48.148;-1.554;2023-04-01T05:09:11;100301.00;;;10.83;87.79
46464;BME280;32161;48.148;-1.554;2023-04-01T05:11:40;100306.09;;;10.79;88.18
46464;BME280;32161;48.148;-1.554;2023-04-01T05:14:13;100295.13;;;10.74;88.06
46464;BME280;32161;48.148;-1.554;2023-04-01T05:16:41;100297.09;;;10.79;87.65
46464;BME280;32161;48.148;-1.554;2023-04-01T05:19:09;100300.34;;;10.64;88.18
46464;BME280;32161;48.148;-1.554;2023-04-01T05:21:36;100313.84;;;10.59;88.72
46464;BME280;32161;48.148;-1.554;2023-04-01T05:24:07;100316.09;;;10.62;88.29
46464;BME280;32161;48.148;-1.554;2023-04-01T05:26:35;100320.91;;;10.60;88.38
46464;BME280;32161;48.148;-1.554;2023-04-01T05:29:05;100321.88;;;10.65;88.59
46464;BME280;32161;48.148;-1.554;2023-04-01T05:31:33;100327.19;;;10.60;88.93
46464;BME280;32161;48.148;-1.554;2023-04-01T05:34:00;100319.41;;;10.52;88.96
46464;BME280;32161;48.148;-1.554;2023-04-01T05:36:28;100333.63;;;10.42;89.30
46464;BME280;32161;48.148;-1.554;2023-04-01T05:38:56;100329.84;;;10.43;89.40
46464;BME280;32161;48.148;-1.554;2023-04-01T05:41:24;100329.94;;;10.48;89.31
46464;BME280;32161;48.148;-1.554;2023-04-01T05:43:51;100322.03;;;10.47;88.95
46464;BME280;32161;48.148;-1.554;2023-04-01T05:46:20;100318.25;;;10.48;88.50
46464;BME280;32161;48.148;-1.554;2023-04-01T05:48:48;100318.13;;;10.43;89.25
46464;BME280;32161;48.148;-1.554;2023-04-01T05:51:16;100311.75;;;10.37;89.11
46464;BME280;32161;48.148;-1.554;2023-04-01T05:53:43;100314.59;;;10.42;88.98
46464;BME280;32161;48.148;-1.554;2023-04-01T05:56:11;100305.84;;;10.40;88.98
46464;BME280;32161;48.148;-1.554;2023-04-01T05:58:39;100309.88;;;10.26;89.44
46464;BME280;32161;48.148;-1.554;2023-04-01T06:01:08;100312.59;;;10.26;89.70
46464;BME280;32161;48.148;-1.554;2023-04-01T06:03:38;100322.88;;;10.24;89.74
46464;BME280;32161;48.148;-1.554;2023-04-01T06:06:11;100320.41;;;10.22;89.44
46464;BME280;32161;48.148;-1.554;2023-04-01T06:08:42;100329.84;;;10.20;89.66
46464;BME280;32161;48.148;-1.554;2023-04-01T06:11:23;100318.97;;;10.20;90.33
46464;BME280;32161;48.148;-1.554;2023-04-01T06:14:10;100318.38;;;10.18;90.49
46464;BME280;32161;48.148;-1.554;2023-04-01T06:16:55;100322.16;;;10.17;91.09
46464;BME280;32161;48.148;-1.554;2023-04-01T06:19:39;100326.06;;;10.21;90.90
46464;BME280;32161;48.148;-1.554;2023-04-01T06:22:34;100329.13;;;10.24;91.14
46464;BME280;32161;48.148;-1.554;2023-04-01T06:25:38;100327.84;;;10.27;91.74
46464;BME280;32161;48.148;-1.554;2023-04-01T06:28:42;100328.88;;;10.14;92.27
46464;BME280;32161;48.148;-1.554;2023-04-01T06:31:32;100329.03;;;10.19;92.20
46464;BME280;32161;48.148;-1.554;2023-04-01T06:34:29;100324.31;;;10.26;91.69
46464;BME280;32161;48.148;-1.554;2023-04-01T06:37:19;100328.06;;;10.37;91.40
46464;BME280;32161;48.148;-1.554;2023-04-01T06:40:22;100331.84;;;10.36;91.63
46464;BME280;32161;48.148;-1.554;2023-04-01T06:43:11;100332.56;;;10.43;91.89
46464;BME280;32161;48.148;-1.554;2023-04-01T06:45:46;100332.66;;;10.48;91.86
46464;BME280;32161;48.148;-1.554;2023-04-01T06:48:32;100339.03;;;10.54;91.86
46464;BME280;32161;48.148;-1.554;2023-04-01T06:51:13;100345.31;;;10.43;92.17
46464;BME280;32161;48.148;-1.554;2023-04-01T06:53:51;100349.56;;;10.50;92.27
46464;BME280;32161;48.148;-1.554;2023-04-01T06:56:24;100346.19;;;10.60;91.70
46464;BME280;32161;48.148;-1.554;2023-04-01T06:58:56;100350.94;;;10.65;91.43
46464;BME280;32161;48.148;-1.554;2023-04-01T07:01:31;100341.72;;;10.66;91.08
46464;BME280;32161;48.148;-1.554;2023-04-01T07:04:05;100348.31;;;10.70;91.12
46464;BME280;32161;48.148;-1.554;2023-04-01T07:06:39;100337.50;;;10.87;90.05
46464;BME280;32161;48.148;-1.554;2023-04-01T07:09:14;100351.47;;;10.79;88.83
46464;BME280;32161;48.148;-1.554;2023-04-01T07:11:43;100342.50;;;10.78;89.20
46464;BME280;32161;48.148;-1.554;2023-04-01T07:14:19;100341.09;;;10.75;89.60
46464;BME280;32161;48.148;-1.554;2023-04-01T07:16:51;100341.72;;;10.66;89.52
46464;BME280;32161;48.148;-1.554;2023-04-01T07:19:28;100344.63;;;10.76;89.39
46464;BME280;32161;48.148;-1.554;2023-04-01T07:22:03;100339.78;;;10.78;89.36
46464;BME280;32161;48.148;-1.554;2023-04-01T07:24:34;100349.94;;;10.83;89.58
46464;BME280;32161;48.148;-1.554;2023-04-01T07:27:04;100339.16;;;10.88;89.79
46464;BME280;32161;48.148;-1.554;2023-04-01T07:29:32;100343.28;;;10.90;89.01
46464;BME280;32161;48.148;-1.554;2023-04-01T07:32:22;100343.63;;;10.94;88.45
46464;BME280;32161;48.148;-1.554;2023-04-01T07:35:12;100339.06;;;11.11;87.14
46464;BME280;32161;48.148;-1.554;2023-04-01T07:38:02;100343.19;;;11.14;87.35
46464;BME280;32161;48.148;-1.554;2023-04-01T07:40:41;100354.06;;;11.14;88.03
46464;BME280;32161;48.148;-1.554;2023-04-01T07:43:41;100348.13;;;11.17;87.29
46464;BME280;32161;48.148;-1.554;2023-04-01T07:46:24;100349.22;;;11.16;88.29
46464;BME280;32161;48.148;-1.554;2023-04-01T07:49:02;100359.09;;;11.22;88.21
46464;BME280;32161;48.148;-1.554;2023-04-01T07:51:37;100358.97;;;11.29;88.44
46464;BME280;32161;48.148;-1.554;2023-04-01T07:54:17;100355.06;;;11.53;87.98
46464;BME280;32161;48.148;-1.554;2023-04-01T07:56:55;100362.97;;;11.55;86.74
46464;BME280;32161;48.148;-1.554;2023-04-01T07:59:34;100355.28;;;11.52;85.83
46464;BME280;32161;48.148;-1.554;2023-04-01T08:02:20;100355.63;;;11.55;85.12
46464;BME280;32161;48.148;-1.554;2023-04-01T08:05:04;100352.63;;;11.57;85.59
46464;BME280;32161;48.148;-1.554;2023-04-01T08:07:44;100355.75;;;11.32;86.97
46464;BME280;32161;48.148;-1.554;2023-04-01T08:10:20;100345.31;;;11.74;86.12
46464;BME280;32161;48.148;-1.554;2023-04-01T08:13:02;100352.03;;;11.83;86.18
46464;BME280;32161;48.148;-1.554;2023-04-01T08:15:38;100349.00;;;11.68;86.61
46464;BME280;32161;48.148;-1.554;2023-04-01T08:18:20;100348.53;;;11.71;85.67
46464;BME280;32161;48.148;-1.554;2023-04-01T08:20:53;100358.25;;;11.67;86.28
46464;BME280;32161;48.148;-1.554;2023-04-01T08:23:27;100361.34;;;12.04;82.54
46464;BME280;32161;48.148;-1.554;2023-04-01T08:26:02;100362.56;;;12.13;82.92
46464;BME280;32161;48.148;-1.554;2023-04-01T08:28:36;100366.19;;;12.02;83.34
46464;BME280;32161;48.148;-1.554;2023-04-01T08:31:08;100357.22;;;12.02;82.77
46464;BME280;32161;48.148;-1.554;2023-04-01T08:33:38;100364.81;;;12.00;84.19
46464;BME280;32161;48.148;-1.554;2023-04-01T08:36:12;100362.78;;;12.29;83.49
46464;BME280;32161;48.148;-1.554;2023-04-01T08:38:46;100359.94;;;12.18;83.18
46464;BME280;32161;48.148;-1.554;2023-04-01T08:41:50;100356.28;;;12.52;80.64
46464;BME280;32161;48.148;-1.554;2023-04-01T08:44:40;100373.13;;;12.27;81.09
46464;BME280;32161;48.148;-1.554;2023-04-01T08:51:03;100373.44;;;12.30;82.78
46464;BME280;32161;48.148;-1.554;2023-04-01T08:53:54;100360.03;;;12.45;81.51
46464;BME280;32161;48.148;-1.554;2023-04-01T08:56:30;100360.44;;;12.76;81.82
46464;BME280;32161;48.148;-1.554;2023-04-01T08:59:46;100356.16;;;12.85;81.03
46464;BME280;32161;48.148;-1.554;2023-04-01T09:06:11;100352.84;;;12.83;79.98
46464;BME280;32161;48.148;-1.554;2023-04-01T09:08:59;100370.69;;;12.69;80.76
46464;BME280;32161;48.148;-1.554;2023-04-01T09:11:40;100360.97;;;12.78;79.98
46464;BME280;32161;48.148;-1.554;2023-04-01T09:14:58;100364.44;;;12.68;83.13
46464;BME280;32161;48.148;-1.554;2023-04-01T09:18:03;100361.81;;;12.79;80.83
46464;BME280;32161;48.148;-1.554;2023-04-01T09:20:47;100361.28;;;13.04;79.31
46464;BME280;32161;48.148;-1.554;2023-04-01T09:23:40;100361.25;;;12.77;80.75
46464;BME280;32161;48.148;-1.554;2023-04-01T09:26:35;100359.44;;;12.87;80.25
46464;BME280;32161;48.148;-1.554;2023-04-01T09:29:26;100361.84;;;13.28;78.68
46464;BME280;32161;48.148;-1.554;2023-04-01T09:32:40;100368.50;;;13.15;78.44
46464;BME280;32161;48.148;-1.554;2023-04-01T09:35:22;100362.13;;;12.82;80.84
46464;BME280;32161;48.148;-1.554;2023-04-01T09:38:00;100365.94;;;13.03;79.59
46464;BME280;32161;48.148;-1.554;2023-04-01T09:40:42;100362.56;;;12.52;81.66
46464;BME280;32161;48.148;-1.554;2023-04-01T09:43:40;100358.38;;;12.44;83.18
46464;BME280;32161;48.148;-1.554;2023-04-01T09:46:19;100363.75;;;12.83;83.90
46464;BME280;32161;48.148;-1.554;2023-04-01T09:49:24;100367.84;;;12.81;84.61
46464;BME280;32161;48.148;-1.554;2023-04-01T09:52:16;100362.38;;;12.81;84.67
46464;BME280;32161;48.148;-1.554;2023-04-01T09:55:19;100359.97;;;12.84;84.68
46464;BME280;32161;48.148;-1.554;2023-04-01T10:01:34;100368.63;;;12.76;83.29
46464;BME280;32161;48.148;-1.554;2023-04-01T10:05:19;100377.00;;;12.53;84.02
46464;BME280;32161;48.148;-1.554;2023-04-01T10:08:29;100366.19;;;12.58;85.43
46464;BME280;32161;48.148;-1.554;2023-04-01T10:11:45;100368.03;;;12.74;85.62
46464;BME280;32161;48.148;-1.554;2023-04-01T10:14:53;100369.81;;;12.85;85.97
46464;BME280;32161;48.148;-1.554;2023-04-01T10:21:06;100377.53;;;12.93;83.85
46464;BME280;32161;48.148;-1.554;2023-04-01T10:24:16;100366.88;;;12.70;85.08
46464;BME280;32161;48.148;-1.554;2023-04-01T10:33:37;100357.88;;;12.91;83.19
46464;BME280;32161;48.148;-1.554;2023-04-01T10:36:50;100350.56;;;12.97;83.79
46464;BME280;32161;48.148;-1.554;2023-04-01T10:39:52;100355.09;;;13.35;81.44
46464;BME280;32161;48.148;-1.554;2023-04-01T10:42:57;100353.00;;;13.20;80.43
46464;BME280;32161;48.148;-1.554;2023-04-01T10:46:21;100349.84;;;13.29;80.23
46464;BME280;32161;48.148;-1.554;2023-04-01T10:49:44;100357.03;;;13.40;79.99
46464;BME280;32161;48.148;-1.554;2023-04-01T10:56:33;100351.00;;;13.11;79.34
46464;BME280;32161;48.148;-1.554;2023-04-01T11:02:56;100347.44;;;13.37;81.59
46464;BME280;32161;48.148;-1.554;2023-04-01T11:06:25;100351.41;;;13.52;83.77
46464;BME280;32161;48.148;-1.554;2023-04-01T11:09:41;100345.53;;;13.65;75.90
46464;BME280;32161;48.148;-1.554;2023-04-01T11:13:24;100352.41;;;14.05;75.72
46464;BME280;32161;48.148;-1.554;2023-04-01T11:16:26;100346.50;;;13.86;74.64
46464;BME280;32161;48.148;-1.554;2023-04-01T11:19:44;100360.75;;;13.88;76.88
46464;BME280;32161;48.148;-1.554;2023-04-01T11:22:48;100359.97;;;13.92;72.86
46464;BME280;32161;48.148;-1.554;2023-04-01T11:25:57;100389.97;;;13.28;80.79
46464;BME280;32161;48.148;-1.554;2023-04-01T11:28:52;100373.84;;;12.83;81.77
46464;BME280;32161;48.148;-1.554;2023-04-01T11:31:47;100366.56;;;12.66;83.74
46464;BME280;32161;48.148;-1.554;2023-04-01T11:35:01;100364.22;;;12.75;82.57
46464;BME280;32161;48.148;-1.554;2023-04-01T11:37:42;100374.13;;;12.81;82.69
46464;BME280;32161;48.148;-1.554;2023-04-01T11:40:23;100372.47;;;12.80;83.72
46464;BME280;32161;48.148;-1.554;2023-04-01T11:43:00;100368.22;;;12.89;84.52
46464;BME280;32161;48.148;-1.554;2023-04-01T11:45:38;100377.16;;;13.07;83.82
46464;BME280;32161;48.148;-1.554;2023-04-01T11:51:34;100391.94;;;12.89;81.63
46464;BME280;32161;48.148;-1.554;2023-04-01T11:54:19;100387.88;;;12.69;84.92
46464;BME280;32161;48.148;-1.554;2023-04-01T11:57:04;100393.50;;;12.63;84.03
46464;BME280;32161;48.148;-1.554;2023-04-01T12:03:21;100390.53;;;12.86;83.27
46464;BME280;32161;48.148;-1.554;2023-04-01T12:05:58;100382.84;;;13.05;83.61
46464;BME280;32161;48.148;-1.554;2023-04-01T12:08:39;100390.59;;;13.35;82.67
46464;BME280;32161;48.148;-1.554;2023-04-01T12:11:19;100390.25;;;13.59;82.82
46464;BME280;32161;48.148;-1.554;2023-04-01T12:13:58;100381.09;;;13.43;83.99
46464;BME280;32161;48.148;-1.554;2023-04-01T12:16:50;100388.47;;;13.42;80.71
46464;BME280;32161;48.148;-1.554;2023-04-01T12:19:30;100374.78;;;13.64;79.88
46464;BME280;32161;48.148;-1.554;2023-04-01T12:22:23;100384.81;;;13.59;79.12
46464;BME280;32161;48.148;-1.554;2023-04-01T12:24:58;100372.50;;;13.29;78.52
46464;BME280;32161;48.148;-1.554;2023-04-01T12:27:42;100373.88;;;13.59;77.14
46464;BME280;32161;48.148;-1.554;2023-04-01T12:30:35;100367.97;;;13.40;78.00
46464;BME280;32161;48.148;-1.554;2023-04-01T12:33:52;100376.06;;;13.57;77.58
46464;BME280;32161;48.148;-1.554;2023-04-01T12:36:41;100378.97;;;13.77;77.21
46464;BME280;32161;48.148;-1.554;2023-04-01T12:39:33;100375.00;;;13.63;76.21
46464;BME280;32161;48.148;-1.554;2023-04-01T12:42:16;100383.53;;;13.39;77.84
46464;BME280;32161;48.148;-1.554;2023-04-01T12:45:02;100386.97;;;13.30;78.50
46464;BME280;32161;48.148;-1.554;2023-04-01T12:48:11;100393.22;;;12.81;80.28
46464;BME280;32161;48.148;-1.554;2023-04-01T12:57:26;100406.16;;;13.35;82.74
46464;BME280;32161;48.148;-1.554;2023-04-01T13:00:12;100406.00;;;13.47;80.11
46464;BME280;32161;48.148;-1.554;2023-04-01T13:02:54;100393.28;;;13.57;80.43
46464;BME280;32161;48.148;-1.554;2023-04-01T13:06:14;100419.59;;;13.68;76.80
46464;BME280;32161;48.148;-1.554;2023-04-01T13:08:53;100435.88;;;13.14;77.39
46464;BME280;32161;48.148;-1.554;2023-04-01T13:11:38;100438.28;;;12.67;77.70
46464;BME280;32161;48.148;-1.554;2023-04-01T13:14:36;100442.50;;;12.19;80.01
46464;BME280;32161;48.148;-1.554;2023-04-01T13:17:15;100436.91;;;11.80;80.34
46464;BME280;32161;48.148;-1.554;2023-04-01T13:19:48;100427.41;;;11.66;79.67
46464;BME280;32161;48.148;-1.554;2023-04-01T13:22:23;100426.00;;;11.63;81.36
46464;BME280;32161;48.148;-1.554;2023-04-01T13:24:59;100430.66;;;11.51;82.79
46464;BME280;32161;48.148;-1.554;2023-04-01T13:27:36;100419.72;;;11.63;85.75
46464;BME280;32161;48.148;-1.554;2023-04-01T13:30:24;100415.97;;;11.81;86.29
46464;BME280;32161;48.148;-1.554;2023-04-01T13:33:00;100418.56;;;12.04;89.60
46464;BME280;32161;48.148;-1.554;2023-04-01T13:35:41;100420.34;;;12.32;89.43
46464;BME280;32161;48.148;-1.554;2023-04-01T13:41:45;100409.06;;;12.84;88.41
46464;BME280;32161;48.148;-1.554;2023-04-01T13:44:22;100416.50;;;13.11;88.20
46464;BME280;32161;48.148;-1.554;2023-04-01T13:47:28;100421.91;;;13.28;85.03
46464;BME280;32161;48.148;-1.554;2023-04-01T13:50:18;100415.47;;;13.66;82.10
46464;BME280;32161;48.148;-1.554;2023-04-01T13:53:21;100415.50;;;13.71;80.98
46464;BME280;32161;48.148;-1.554;2023-04-01T13:56:15;100427.66;;;13.85;80.24
46464;BME280;32161;48.148;-1.554;2023-04-01T14:02:48;100451.16;;;13.32;77.82
46464;BME280;32161;48.148;-1.554;2023-04-01T14:05:51;100452.47;;;12.86;78.04
46464;BME280;32161;48.148;-1.554;2023-04-01T14:08:33;100462.69;;;12.95;75.72
46464;BME280;32161;48.148;-1.554;2023-04-01T14:11:15;100448.06;;;12.63;77.66
46464;BME280;32161;48.148;-1.554;2023-04-01T14:13:56;100449.88;;;12.57;81.72
46464;BME280;32161;48.148;-1.554;2023-04-01T14:17:03;100452.75;;;12.67;82.90
46464;BME280;32161;48.148;-1.554;2023-04-01T14:20:17;100445.84;;;12.82;82.91
46464;BME280;32161;48.148;-1.554;2023-04-01T14:23:07;100442.00;;;13.00;81.90
46464;BME280;32161;48.148;-1.554;2023-04-01T14:29:12;100437.00;;;13.35;80.91
46464;BME280;32161;48.148;-1.554;2023-04-01T14:32:02;100439.22;;;13.38;77.96
46464;BME280;32161;48.148;-1.554;2023-04-01T14:34:56;100450.91;;;13.34;80.32
46464;BME280;32161;48.148;-1.554;2023-04-01T14:37:55;100456.63;;;13.59;77.94
46464;BME280;32161;48.148;-1.554;2023-04-01T14:40:35;100453.53;;;13.51;75.55
46464;BME280;32161;48.148;-1.554;2023-04-01T14:43:44;100460.47;;;13.36;75.64
46464;BME280;32161;48.148;-1.554;2023-04-01T14:46:30;100460.16;;;13.33;77.56